sensor_id;sensor_type;location;lat;lon;timestamp;P1;durP1;ratioP1;P2;durP2;ratioP2
73959;SDS011;62316;48.920;2.342;2023-10-08T00:01:14;64.75;;;51.75;;
73959;SDS011;62316;48.920;2.342;2023-10-08T00:03:42;62.00;;;50.00;;
73959;SDS011;62316;48.920;2.342;2023-10-08T00:06:14;64.50;;;51.50;;
73959;SDS011;62316;48.920;2.342;2023-10-08T00:08:39;57.25;;;45.75;;
73959;SDS011;62316;48.920;2.342;2023-10-08T00:11:05;62.25;;;51.00;;
73959;SDS011;62316;48.920;2.342;2023-10-08T00:13:35;59.50;;;48.00;;
73959;SDS011;62316;48.920;2.342;2023-10-08T00:16:05;56.75;;;44.50;;
73959;SDS011;62316;48.920;2.342;2023-10-08T00:18:41;59.00;;;46.75;;
73959;SDS011;62316;48.920;2.342;2023-10-08T00:21:13;55.75;;;45.50;;
73959;SDS011;62316;48.920;2.342;2023-10-08T00:23:39;63.00;;;47.25;;
73959;SDS011;62316;48.920;2.342;2023-10-08T00:26:07;55.25;;;44.25;;
73959;SDS011;62316;48.920;2.342;2023-10-08T00:28:33;51.00;;;42.75;;
73959;SDS011;62316;48.920;2.342;2023-10-08T00:30:58;54.25;;;43.75;;
73959;SDS011;62316;48.920;2.342;2023-10-08T00:33:30;58.00;;;47.75;;
73959;SDS011;62316;48.920;2.342;2023-10-08T00:35:56;56.00;;;44.50;;
73959;SDS011;62316;48.920;2.342;2023-10-08T00:38:21;57.50;;;43.50;;
73959;SDS011;62316;48.920;2.342;2023-10-08T00:40:48;54.75;;;44.00;;
73959;SDS011;62316;48.920;2.342;2023-10-08T00:43:31;53.50;;;42.00;;
73959;SDS011;62316;48.920;2.342;2023-10-08T00:45:58;53.00;;;42.25;;
73959;SDS011;62316;48.920;2.342;2023-10-08T00:48:24;49.50;;;37.75;;
73959;SDS011;62316;48.920;2.342;2023-10-08T00:50:53;53.50;;;42.75;;
73959;SDS011;62316;48.920;2.342;2023-10-08T00:53:34;50.50;;;42.25;;
73959;SDS011;62316;48.920;2.342;2023-10-08T00:59:11;53.25;;;43.00;;
73959;SDS011;62316;48.920;2.342;2023-10-08T01:01:40;53.75;;;43.50;;
73959;SDS011;62316;48.920;2.342;2023-10-08T01:04:05;53.75;;;43.50;;
73959;SDS011;62316;48.920;2.342;2023-10-08T01:06:39;50.75;;;43.75;;
73959;SDS011;62316;48.920;2.342;2023-10-08T01:09:05;53.00;;;41.50;;
73959;SDS011;62316;48.920;2.342;2023-10-08T01:11:43;49.25;;;42.25;;
73959;SDS011;62316;48.920;2.342;2023-10-08T01:14:14;50.25;;;40.50;;
73959;SDS011;62316;48.920;2.342;2023-10-08T01:16:40;48.50;;;40.75;;
73959;SDS011;62316;48.920;2.342;2023-10-08T01:19:10;50.00;;;42.25;;
73959;SDS011;62316;48.920;2.342;2023-10-08T01:21:38;51.00;;;40.50;;
73959;SDS011;62316;48.920;2.342;2023-10-08T01:24:05;51.50;;;44.00;;
73959;SDS011;62316;48.920;2.342;2023-10-08T01:26:32;51.00;;;40.75;;
73959;SDS011;62316;48.920;2.342;2023-10-08T01:28:58;52.75;;;42.75;;
73959;SDS011;62316;48.920;2.342;2023-10-08T01:31:28;54.50;;;44.00;;
73959;SDS011;62316;48.920;2.342;2023-10-08T01:33:53;48.00;;;40.75;;
73959;SDS011;62316;48.920;2.342;2023-10-08T01:36:21;56.00;;;45.75;;
73959;SDS011;62316;48.920;2.342;2023-10-08T01:38:48;54.25;;;42.00;;
73959;SDS011;62316;48.920;2.342;2023-10-08T01:41:13;56.75;;;46.75;;
73959;SDS011;62316;48.920;2.342;2023-10-08T01:43:45;48.50;;;42.00;;
73959;SDS011;62316;48.920;2.342;2023-10-08T01:46:10;54.00;;;44.00;;
73959;SDS011;62316;48.920;2.342;2023-10-08T01:48:40;57.75;;;45.25;;
73959;SDS011;62316;48.920;2.342;2023-10-08T01:51:09;51.00;;;40.75;;
73959;SDS011;62316;48.920;2.342;2023-10-08T01:53:37;55.00;;;42.25;;
73959;SDS011;62316;48.920;2.342;2023-10-08T01:56:03;53.75;;;44.00;;
73959;SDS011;62316;48.920;2.342;2023-10-08T01:58:29;52.00;;;39.00;;
73959;SDS011;62316;48.920;2.342;2023-10-08T02:00:54;53.75;;;43.50;;
73959;SDS011;62316;48.920;2.342;2023-10-08T02:03:23;55.00;;;45.00;;
73959;SDS011;62316;48.920;2.342;2023-10-08T02:05:49;49.00;;;41.75;;
73959;SDS011;62316;48.920;2.342;2023-10-08T02:08:18;56.25;;;44.25;;
73959;SDS011;62316;48.920;2.342;2023-10-08T02:10:44;53.00;;;42.50;;
73959;SDS011;62316;48.920;2.342;2023-10-08T02:13:12;50.75;;;41.25;;
73959;SDS011;62316;48.920;2.342;2023-10-08T02:15:43;51.25;;;41.50;;
73959;SDS011;62316;48.920;2.342;2023-10-08T02:18:09;50.50;;;43.00;;
73959;SDS011;62316;48.920;2.342;2023-10-08T02:20:34;53.25;;;43.00;;
73959;SDS011;62316;48.920;2.342;2023-10-08T02:22:59;51.00;;;42.00;;
73959;SDS011;62316;48.920;2.342;2023-10-08T02:25:25;53.25;;;43.25;;
73959;SDS011;62316;48.920;2.342;2023-10-08T02:27:50;51.50;;;41.75;;
73959;SDS011;62316;48.920;2.342;2023-10-08T02:30:16;54.25;;;43.75;;
73959;SDS011;62316;48.920;2.342;2023-10-08T02:32:42;55.50;;;43.75;;
73959;SDS011;62316;48.920;2.342;2023-10-08T02:35:08;55.00;;;41.25;;
73959;SDS011;62316;48.920;2.342;2023-10-08T02:37:36;51.25;;;43.00;;
73959;SDS011;62316;48.920;2.342;2023-10-08T02:40:02;51.25;;;42.00;;
73959;SDS011;62316;48.920;2.342;2023-10-08T02:42:40;51.50;;;42.50;;
73959;SDS011;62316;48.920;2.342;2023-10-08T02:45:06;51.50;;;43.00;;
73959;SDS011;62316;48.920;2.342;2023-10-08T02:47:32;48.75;;;40.75;;
73959;SDS011;62316;48.920;2.342;2023-10-08T02:49:58;51.25;;;42.25;;
73959;SDS011;62316;48.920;2.342;2023-10-08T02:52:23;50.50;;;41.75;;
73959;SDS011;62316;48.920;2.342;2023-10-08T02:54:51;52.25;;;42.75;;
73959;SDS011;62316;48.920;2.342;2023-10-08T02:57:18;47.75;;;40.75;;
73959;SDS011;62316;48.920;2.342;2023-10-08T02:59:45;59.75;;;47.75;;
73959;SDS011;62316;48.920;2.342;2023-10-08T03:02:13;53.50;;;42.25;;
73959;SDS011;62316;48.920;2.342;2023-10-08T03:04:46;52.25;;;42.75;;
73959;SDS011;62316;48.920;2.342;2023-10-08T03:07:12;54.25;;;43.25;;
73959;SDS011;62316;48.920;2.342;2023-10-08T03:09:46;55.50;;;45.50;;
73959;SDS011;62316;48.920;2.342;2023-10-08T03:12:14;52.00;;;41.75;;
73959;SDS011;62316;48.920;2.342;2023-10-08T03:14:40;55.25;;;45.00;;
73959;SDS011;62316;48.920;2.342;2023-10-08T03:17:25;48.75;;;39.50;;
73959;SDS011;62316;48.920;2.342;2023-10-08T03:19:51;50.50;;;41.75;;
73959;SDS011;62316;48.920;2.342;2023-10-08T03:22:17;50.25;;;40.25;;
73959;SDS011;62316;48.920;2.342;2023-10-08T03:24:44;51.25;;;41.75;;
73959;SDS011;62316;48.920;2.342;2023-10-08T03:27:13;47.75;;;38.25;;
73959;SDS011;62316;48.920;2.342;2023-10-08T03:29:45;47.50;;;40.00;;
73959;SDS011;62316;48.920;2.342;2023-10-08T03:32:10;45.50;;;38.50;;
73959;SDS011;62316;48.920;2.342;2023-10-08T03:34:44;45.25;;;36.25;;
73959;SDS011;62316;48.920;2.342;2023-10-08T03:37:11;48.75;;;41.00;;
73959;SDS011;62316;48.920;2.342;2023-10-08T03:39:44;49.50;;;40.00;;
73959;SDS011;62316;48.920;2.342;2023-10-08T03:42:22;39.25;;;34.50;;
73959;SDS011;62316;48.920;2.342;2023-10-08T03:44:48;41.75;;;33.50;;
73959;SDS011;62316;48.920;2.342;2023-10-08T03:47:17;41.25;;;33.25;;
73959;SDS011;62316;48.920;2.342;2023-10-08T03:49:43;41.50;;;35.00;;
73959;SDS011;62316;48.920;2.342;2023-10-08T03:52:11;40.75;;;36.75;;
73959;SDS011;62316;48.920;2.342;2023-10-08T03:54:36;45.50;;;36.25;;
73959;SDS011;62316;48.920;2.342;2023-10-08T03:57:07;43.75;;;36.25;;
73959;SDS011;62316;48.920;2.342;2023-10-08T03:59:39;42.50;;;37.25;;
73959;SDS011;62316;48.920;2.342;2023-10-08T04:02:06;45.50;;;37.00;;
73959;SDS011;62316;48.920;2.342;2023-10-08T04:04:49;46.75;;;38.75;;
73959;SDS011;62316;48.920;2.342;2023-10-08T04:07:38;41.75;;;36.25;;
73959;SDS011;62316;48.920;2.342;2023-10-08T04:10:25;39.00;;;34.75;;
73959;SDS011;62316;48.920;2.342;2023-10-08T04:13:06;42.25;;;36.00;;
73959;SDS011;62316;48.920;2.342;2023-10-08T04:15:34;41.75;;;35.25;;
73959;SDS011;62316;48.920;2.342;2023-10-08T04:17:59;42.75;;;37.75;;
73959;SDS011;62316;48.920;2.342;2023-10-08T04:20:27;42.25;;;36.00;;
73959;SDS011;62316;48.920;2.342;2023-10-08T04:23:04;43.75;;;36.25;;
73959;SDS011;62316;48.920;2.342;2023-10-08T04:25:32;35.00;;;31.25;;
73959;SDS011;62316;48.920;2.342;2023-10-08T04:27:58;41.75;;;33.75;;
73959;SDS011;62316;48.920;2.342;2023-10-08T04:30:26;38.75;;;35.25;;
73959;SDS011;62316;48.920;2.342;2023-10-08T04:33:04;35.75;;;33.25;;
73959;SDS011;62316;48.920;2.342;2023-10-08T04:35:38;44.50;;;35.50;;
73959;SDS011;62316;48.920;2.342;2023-10-08T04:38:22;41.00;;;32.00;;
73959;SDS011;62316;48.920;2.342;2023-10-08T04:40:48;38.75;;;34.25;;
73959;SDS011;62316;48.920;2.342;2023-10-08T04:43:14;41.25;;;35.00;;
73959;SDS011;62316;48.920;2.342;2023-10-08T04:45:40;36.75;;;32.50;;
73959;SDS011;62316;48.920;2.342;2023-10-08T04:48:14;38.00;;;33.00;;
73959;SDS011;62316;48.920;2.342;2023-10-08T04:50:45;38.00;;;33.00;;
73959;SDS011;62316;48.920;2.342;2023-10-08T04:53:12;43.75;;;33.00;;
73959;SDS011;62316;48.920;2.342;2023-10-08T04:55:41;37.00;;;32.25;;
73959;SDS011;62316;48.920;2.342;2023-10-08T04:58:13;36.50;;;32.25;;
73959;SDS011;62316;48.920;2.342;2023-10-08T05:00:46;36.50;;;34.25;;
73959;SDS011;62316;48.920;2.342;2023-10-08T05:03:24;36.50;;;34.25;;
73959;SDS011;62316;48.920;2.342;2023-10-08T05:05:57;36.25;;;32.00;;
73959;SDS011;62316;48.920;2.342;2023-10-08T05:08:31;38.75;;;33.50;;
73959;SDS011;62316;48.920;2.342;2023-10-08T05:11:22;34.00;;;29.50;;
73959;SDS011;62316;48.920;2.342;2023-10-08T05:14:02;37.25;;;33.25;;
73959;SDS011;62316;48.920;2.342;2023-10-08T05:16:31;36.00;;;31.00;;
73959;SDS011;62316;48.920;2.342;2023-10-08T05:19:09;32.00;;;31.00;;
73959;SDS011;62316;48.920;2.342;2023-10-08T05:22:02;30.25;;;28.25;;
73959;SDS011;62316;48.920;2.342;2023-10-08T05:24:43;32.75;;;28.75;;
73959;SDS011;62316;48.920;2.342;2023-10-08T05:27:16;33.75;;;29.50;;
73959;SDS011;62316;48.920;2.342;2023-10-08T05:30:02;26.00;;;23.50;;
73959;SDS011;62316;48.920;2.342;2023-10-08T05:32:52;31.75;;;28.75;;
73959;SDS011;62316;48.920;2.342;2023-10-08T05:35:36;34.25;;;32.00;;
73959;SDS011;62316;48.920;2.342;2023-10-08T05:38:08;36.25;;;33.00;;
73959;SDS011;62316;48.920;2.342;2023-10-08T05:40:51;34.00;;;31.25;;
73959;SDS011;62316;48.920;2.342;2023-10-08T05:43:32;37.25;;;29.25;;
73959;SDS011;62316;48.920;2.342;2023-10-08T05:46:07;37.75;;;30.50;;
73959;SDS011;62316;48.920;2.342;2023-10-08T05:48:54;29.25;;;28.75;;
73959;SDS011;62316;48.920;2.342;2023-10-08T05:51:35;31.00;;;28.75;;
73959;SDS011;62316;48.920;2.342;2023-10-08T05:54:13;31.50;;;30.00;;
73959;SDS011;62316;48.920;2.342;2023-10-08T05:56:58;29.25;;;26.50;;
73959;SDS011;62316;48.920;2.342;2023-10-08T05:59:45;30.75;;;25.50;;
73959;SDS011;62316;48.920;2.342;2023-10-08T06:02:17;32.00;;;30.00;;
73959;SDS011;62316;48.920;2.342;2023-10-08T06:04:52;28.00;;;26.25;;
73959;SDS011;62316;48.920;2.342;2023-10-08T06:10:29;29.25;;;28.25;;
73959;SDS011;62316;48.920;2.342;2023-10-08T06:12:55;30.25;;;24.25;;
73959;SDS011;62316;48.920;2.342;2023-10-08T06:15:27;29.00;;;27.25;;
73959;SDS011;62316;48.920;2.342;2023-10-08T06:18:09;32.00;;;29.25;;
73959;SDS011;62316;48.920;2.342;2023-10-08T06:20:35;24.75;;;24.75;;
73959;SDS011;62316;48.920;2.342;2023-10-08T06:23:01;28.00;;;25.25;;
73959;SDS011;62316;48.920;2.342;2023-10-08T06:25:32;41.00;;;35.50;;
73959;SDS011;62316;48.920;2.342;2023-10-08T06:27:57;35.00;;;29.50;;
73959;SDS011;62316;48.920;2.342;2023-10-08T06:30:22;30.50;;;27.75;;
73959;SDS011;62316;48.920;2.342;2023-10-08T06:32:49;28.50;;;27.25;;
73959;SDS011;62316;48.920;2.342;2023-10-08T06:35:15;28.75;;;27.00;;
73959;SDS011;62316;48.920;2.342;2023-10-08T06:37:46;29.25;;;24.75;;
73959;SDS011;62316;48.920;2.342;2023-10-08T06:40:14;33.00;;;28.25;;
73959;SDS011;62316;48.920;2.342;2023-10-08T06:42:58;34.75;;;28.00;;
73959;SDS011;62316;48.920;2.342;2023-10-08T06:45:28;30.75;;;27.50;;
73959;SDS011;62316;48.920;2.342;2023-10-08T06:47:56;29.00;;;26.50;;
73959;SDS011;62316;48.920;2.342;2023-10-08T06:50:22;29.50;;;26.00;;
73959;SDS011;62316;48.920;2.342;2023-10-08T06:52:47;28.50;;;26.50;;
73959;SDS011;62316;48.920;2.342;2023-10-08T06:55:14;29.50;;;26.75;;
73959;SDS011;62316;48.920;2.342;2023-10-08T06:57:42;26.25;;;25.25;;
73959;SDS011;62316;48.920;2.342;2023-10-08T07:00:11;36.00;;;31.00;;
73959;SDS011;62316;48.920;2.342;2023-10-08T07:02:56;29.25;;;27.25;;
73959;SDS011;62316;48.920;2.342;2023-10-08T07:05:21;37.50;;;32.00;;
73959;SDS011;62316;48.920;2.342;2023-10-08T07:07:47;31.75;;;29.50;;
73959;SDS011;62316;48.920;2.342;2023-10-08T07:10:13;32.50;;;31.00;;
73959;SDS011;62316;48.920;2.342;2023-10-08T07:12:38;36.50;;;30.75;;
73959;SDS011;62316;48.920;2.342;2023-10-08T07:15:04;28.25;;;27.50;;
73959;SDS011;62316;48.920;2.342;2023-10-08T07:17:36;31.25;;;28.50;;
73959;SDS011;62316;48.920;2.342;2023-10-08T07:20:05;33.25;;;31.00;;
73959;SDS011;62316;48.920;2.342;2023-10-08T07:22:38;33.00;;;29.75;;
73959;SDS011;62316;48.920;2.342;2023-10-08T07:25:04;29.75;;;27.50;;
73959;SDS011;62316;48.920;2.342;2023-10-08T07:27:33;37.25;;;34.50;;
73959;SDS011;62316;48.920;2.342;2023-10-08T07:30:03;30.50;;;28.50;;
73959;SDS011;62316;48.920;2.342;2023-10-08T07:32:35;31.75;;;29.75;;
73959;SDS011;62316;48.920;2.342;2023-10-08T07:35:03;33.50;;;30.50;;
73959;SDS011;62316;48.920;2.342;2023-10-08T07:37:48;33.50;;;29.25;;
73959;SDS011;62316;48.920;2.342;2023-10-08T07:40:13;30.00;;;27.75;;
73959;SDS011;62316;48.920;2.342;2023-10-08T07:42:39;38.25;;;32.00;;
73959;SDS011;62316;48.920;2.342;2023-10-08T07:45:05;34.75;;;30.50;;
73959;SDS011;62316;48.920;2.342;2023-10-08T07:47:30;33.50;;;31.25;;
73959;SDS011;62316;48.920;2.342;2023-10-08T07:49:56;29.25;;;27.50;;
73959;SDS011;62316;48.920;2.342;2023-10-08T07:52:21;33.75;;;32.00;;
73959;SDS011;62316;48.920;2.342;2023-10-08T07:54:47;42.00;;;36.00;;
73959;SDS011;62316;48.920;2.342;2023-10-08T07:57:13;49.75;;;38.50;;
73959;SDS011;62316;48.920;2.342;2023-10-08T07:59:42;38.25;;;33.00;;
73959;SDS011;62316;48.920;2.342;2023-10-08T08:02:19;47.50;;;38.25;;
73959;SDS011;62316;48.920;2.342;2023-10-08T08:04:50;40.00;;;34.25;;
73959;SDS011;62316;48.920;2.342;2023-10-08T08:07:16;46.50;;;40.00;;
73959;SDS011;62316;48.920;2.342;2023-10-08T08:09:51;37.50;;;34.00;;
73959;SDS011;62316;48.920;2.342;2023-10-08T08:12:19;44.25;;;35.75;;
73959;SDS011;62316;48.920;2.342;2023-10-08T08:14:46;40.75;;;32.75;;
73959;SDS011;62316;48.920;2.342;2023-10-08T08:17:12;42.25;;;36.00;;
73959;SDS011;62316;48.920;2.342;2023-10-08T08:19:41;44.50;;;36.75;;
73959;SDS011;62316;48.920;2.342;2023-10-08T08:22:07;41.00;;;35.25;;
73959;SDS011;62316;48.920;2.342;2023-10-08T08:24:32;42.25;;;35.25;;
73959;SDS011;62316;48.920;2.342;2023-10-08T08:27:01;46.25;;;40.00;;
73959;SDS011;62316;48.920;2.342;2023-10-08T08:29:33;43.25;;;38.00;;
73959;SDS011;62316;48.920;2.342;2023-10-08T08:32:09;41.75;;;38.00;;
73959;SDS011;62316;48.920;2.342;2023-10-08T08:34:34;46.00;;;37.25;;
73959;SDS011;62316;48.920;2.342;2023-10-08T08:37:01;43.00;;;38.00;;
73959;SDS011;62316;48.920;2.342;2023-10-08T08:39:26;36.75;;;32.50;;
73959;SDS011;62316;48.920;2.342;2023-10-08T08:42:00;46.50;;;37.25;;
73959;SDS011;62316;48.920;2.342;2023-10-08T08:44:33;41.00;;;35.25;;
73959;SDS011;62316;48.920;2.342;2023-10-08T08:47:01;45.50;;;37.75;;
73959;SDS011;62316;48.920;2.342;2023-10-08T08:49:29;35.25;;;32.00;;
73959;SDS011;62316;48.920;2.342;2023-10-08T08:51:56;38.50;;;34.00;;
73959;SDS011;62316;48.920;2.342;2023-10-08T08:54:21;34.50;;;32.25;;
73959;SDS011;62316;48.920;2.342;2023-10-08T08:56:49;39.50;;;33.75;;
73959;SDS011;62316;48.920;2.342;2023-10-08T08:59:15;38.25;;;34.50;;
73959;SDS011;62316;48.920;2.342;2023-10-08T09:01:42;47.25;;;39.00;;
73959;SDS011;62316;48.920;2.342;2023-10-08T09:04:07;34.00;;;31.50;;
73959;SDS011;62316;48.920;2.342;2023-10-08T09:06:36;33.00;;;30.00;;
73959;SDS011;62316;48.920;2.342;2023-10-08T09:09:04;31.25;;;29.50;;
73959;SDS011;62316;48.920;2.342;2023-10-08T09:11:48;37.00;;;31.00;;
73959;SDS011;62316;48.920;2.342;2023-10-08T09:14:17;30.75;;;28.75;;
73959;SDS011;62316;48.920;2.342;2023-10-08T09:16:42;36.25;;;32.00;;
73959;SDS011;62316;48.920;2.342;2023-10-08T09:19:09;30.75;;;27.50;;
73959;SDS011;62316;48.920;2.342;2023-10-08T09:21:37;29.75;;;27.00;;
73959;SDS011;62316;48.920;2.342;2023-10-08T09:24:08;32.25;;;27.25;;
73959;SDS011;62316;48.920;2.342;2023-10-08T09:26:36;31.75;;;30.25;;
73959;SDS011;62316;48.920;2.342;2023-10-08T09:29:04;27.25;;;26.75;;
73959;SDS011;62316;48.920;2.342;2023-10-08T09:31:29;26.75;;;25.75;;
73959;SDS011;62316;48.920;2.342;2023-10-08T09:37:00;35.25;;;33.00;;
73959;SDS011;62316;48.920;2.342;2023-10-08T09:39:30;28.00;;;24.50;;
73959;SDS011;62316;48.920;2.342;2023-10-08T09:41:59;38.00;;;30.00;;
73959;SDS011;62316;48.920;2.342;2023-10-08T09:44:30;31.25;;;28.50;;
73959;SDS011;62316;48.920;2.342;2023-10-08T09:47:02;27.25;;;26.50;;
73959;SDS011;62316;48.920;2.342;2023-10-08T09:49:52;24.50;;;22.25;;
73959;SDS011;62316;48.920;2.342;2023-10-08T09:52:16;31.75;;;23.75;;
73959;SDS011;62316;48.920;2.342;2023-10-08T09:54:43;26.00;;;21.50;;
73959;SDS011;62316;48.920;2.342;2023-10-08T09:57:14;22.75;;;22.25;;
73959;SDS011;62316;48.920;2.342;2023-10-08T09:59:44;25.75;;;21.50;;
73959;SDS011;62316;48.920;2.342;2023-10-08T10:02:13;22.00;;;20.25;;
73959;SDS011;62316;48.920;2.342;2023-10-08T10:04:45;27.25;;;25.50;;
73959;SDS011;62316;48.920;2.342;2023-10-08T10:07:11;25.25;;;24.75;;
73959;SDS011;62316;48.920;2.342;2023-10-08T10:09:42;24.25;;;21.25;;
73959;SDS011;62316;48.920;2.342;2023-10-08T10:12:08;26.50;;;24.75;;
73959;SDS011;62316;48.920;2.342;2023-10-08T10:14:42;26.25;;;23.75;;
73959;SDS011;62316;48.920;2.342;2023-10-08T10:17:22;23.00;;;23.00;;
73959;SDS011;62316;48.920;2.342;2023-10-08T10:20:00;30.75;;;24.25;;
73959;SDS011;62316;48.920;2.342;2023-10-08T10:22:32;29.25;;;24.00;;
73959;SDS011;62316;48.920;2.342;2023-10-08T10:24:58;23.50;;;22.25;;
73959;SDS011;62316;48.920;2.342;2023-10-08T10:27:25;23.00;;;22.75;;
73959;SDS011;62316;48.920;2.342;2023-10-08T10:29:51;24.75;;;21.00;;
73959;SDS011;62316;48.920;2.342;2023-10-08T10:32:17;30.25;;;26.50;;
73959;SDS011;62316;48.920;2.342;2023-10-08T10:34:44;20.75;;;18.00;;
73959;SDS011;62316;48.920;2.342;2023-10-08T10:37:12;23.50;;;20.25;;
73959;SDS011;62316;48.920;2.342;2023-10-08T10:39:51;23.50;;;21.25;;
73959;SDS011;62316;48.920;2.342;2023-10-08T10:42:19;17.00;;;15.50;;
73959;SDS011;62316;48.920;2.342;2023-10-08T10:44:48;22.75;;;19.75;;
73959;SDS011;62316;48.920;2.342;2023-10-08T10:50:25;20.50;;;16.50;;
73959;SDS011;62316;48.920;2.342;2023-10-08T10:53:25;20.75;;;20.50;;
73959;SDS011;62316;48.920;2.342;2023-10-08T10:56:03;17.50;;;16.50;;
73959;SDS011;62316;48.920;2.342;2023-10-08T10:58:34;22.50;;;17.50;;
73959;SDS011;62316;48.920;2.342;2023-10-08T11:01:05;18.25;;;17.25;;
73959;SDS011;62316;48.920;2.342;2023-10-08T11:04:02;16.67;;;14.67;;
73959;SDS011;62316;48.920;2.342;2023-10-08T11:06:43;17.50;;;16.50;;
73959;SDS011;62316;48.920;2.342;2023-10-08T11:09:09;12.50;;;12.50;;
73959;SDS011;62316;48.920;2.342;2023-10-08T11:11:41;0.00;;;0.00;;
73959;SDS011;62316;48.920;2.342;2023-10-08T11:14:10;14.25;;;13.25;;
73959;SDS011;62316;48.920;2.342;2023-10-08T11:16:41;19.00;;;16.75;;
73959;SDS011;62316;48.920;2.342;2023-10-08T11:19:08;13.75;;;13.75;;
73959;SDS011;62316;48.920;2.342;2023-10-08T11:21:50;17.00;;;14.50;;
73959;SDS011;62316;48.920;2.342;2023-10-08T11:24:29;17.00;;;13.00;;
73959;SDS011;62316;48.920;2.342;2023-10-08T11:26:54;17.75;;;16.00;;
73959;SDS011;62316;48.920;2.342;2023-10-08T11:29:40;18.50;;;15.50;;
73959;SDS011;62316;48.920;2.342;2023-10-08T11:32:06;19.00;;;16.33;;
73959;SDS011;62316;48.920;2.342;2023-10-08T11:34:32;18.33;;;15.67;;
73959;SDS011;62316;48.920;2.342;2023-10-08T11:37:04;18.33;;;16.67;;
73959;SDS011;62316;48.920;2.342;2023-10-08T11:39:38;15.25;;;14.00;;
73959;SDS011;62316;48.920;2.342;2023-10-08T11:42:10;17.50;;;14.00;;
73959;SDS011;62316;48.920;2.342;2023-10-08T11:44:55;13.00;;;12.00;;
73959;SDS011;62316;48.920;2.342;2023-10-08T11:47:24;14.67;;;13.00;;
73959;SDS011;62316;48.920;2.342;2023-10-08T11:49:50;18.25;;;14.75;;
73959;SDS011;62316;48.920;2.342;2023-10-08T11:52:19;17.67;;;14.00;;
73959;SDS011;62316;48.920;2.342;2023-10-08T11:54:49;17.67;;;16.00;;
73959;SDS011;62316;48.920;2.342;2023-10-08T11:57:17;11.67;;;10.67;;
73959;SDS011;62316;48.920;2.342;2023-10-08T11:59:46;19.75;;;17.75;;
73959;SDS011;62316;48.920;2.342;2023-10-08T12:02:12;12.33;;;11.00;;
73959;SDS011;62316;48.920;2.342;2023-10-08T12:04:41;16.33;;;13.33;;
73959;SDS011;62316;48.920;2.342;2023-10-08T12:07:06;12.67;;;12.67;;
73959;SDS011;62316;48.920;2.342;2023-10-08T12:09:32;11.67;;;10.67;;
73959;SDS011;62316;48.920;2.342;2023-10-08T12:12:05;15.00;;;13.00;;
73959;SDS011;62316;48.920;2.342;2023-10-08T12:14:40;11.67;;;9.33;;
73959;SDS011;62316;48.920;2.342;2023-10-08T12:17:18;14.33;;;14.33;;
73959;SDS011;62316;48.920;2.342;2023-10-08T12:20:02;6.67;;;5.67;;
73959;SDS011;62316;48.920;2.342;2023-10-08T12:22:37;9.33;;;8.00;;
73959;SDS011;62316;48.920;2.342;2023-10-08T12:25:02;12.00;;;10.00;;
73959;SDS011;62316;48.920;2.342;2023-10-08T12:27:32;12.00;;;10.00;;
73959;SDS011;62316;48.920;2.342;2023-10-08T12:29:58;8.33;;;8.33;;
73959;SDS011;62316;48.920;2.342;2023-10-08T12:32:24;12.25;;;9.50;;
73959;SDS011;62316;48.920;2.342;2023-10-08T12:34:51;12.00;;;11.00;;
73959;SDS011;62316;48.920;2.342;2023-10-08T12:37:18;15.00;;;12.00;;
73959;SDS011;62316;48.920;2.342;2023-10-08T12:39:44;11.50;;;11.50;;
73959;SDS011;62316;48.920;2.342;2023-10-08T12:42:24;13.25;;;11.00;;
73959;SDS011;62316;48.920;2.342;2023-10-08T12:44:50;8.67;;;7.67;;
73959;SDS011;62316;48.920;2.342;2023-10-08T12:47:15;9.00;;;9.00;;
73959;SDS011;62316;48.920;2.342;2023-10-08T12:49:41;8.33;;;7.33;;
73959;SDS011;62316;48.920;2.342;2023-10-08T12:52:06;11.67;;;10.00;;
73959;SDS011;62316;48.920;2.342;2023-10-08T12:54:54;8.33;;;6.00;;
73959;SDS011;62316;48.920;2.342;2023-10-08T13:03:31;6.00;;;6.00;;
73959;SDS011;62316;48.920;2.342;2023-10-08T13:06:01;9.33;;;7.33;;
73959;SDS011;62316;48.920;2.342;2023-10-08T13:08:40;8.33;;;8.33;;
73959;SDS011;62316;48.920;2.342;2023-10-08T13:11:08;7.67;;;6.67;;
73959;SDS011;62316;48.920;2.342;2023-10-08T13:13:34;10.00;;;8.00;;
73959;SDS011;62316;48.920;2.342;2023-10-08T13:16:01;8.67;;;8.67;;
73959;SDS011;62316;48.920;2.342;2023-10-08T13:18:51;5.67;;;5.67;;
73959;SDS011;62316;48.920;2.342;2023-10-08T13:21:22;6.33;;;5.33;;
73959;SDS011;62316;48.920;2.342;2023-10-08T13:24:02;8.33;;;8.33;;
73959;SDS011;62316;48.920;2.342;2023-10-08T13:26:38;9.00;;;9.00;;
73959;SDS011;62316;48.920;2.342;2023-10-08T13:29:23;8.33;;;7.33;;
73959;SDS011;62316;48.920;2.342;2023-10-08T13:32:11;6.00;;;6.00;;
73959;SDS011;62316;48.920;2.342;2023-10-08T13:34:48;9.33;;;7.33;;
73959;SDS011;62316;48.920;2.342;2023-10-08T13:37:25;7.00;;;7.00;;
73959;SDS011;62316;48.920;2.342;2023-10-08T13:39:58;5.33;;;4.67;;
73959;SDS011;62316;48.920;2.342;2023-10-08T13:42:37;10.33;;;10.33;;
73959;SDS011;62316;48.920;2.342;2023-10-08T13:45:06;8.33;;;7.33;;
73959;SDS011;62316;48.920;2.342;2023-10-08T13:47:56;14.67;;;11.67;;
73959;SDS011;62316;48.920;2.342;2023-10-08T13:50:48;10.00;;;8.67;;
73959;SDS011;62316;48.920;2.342;2023-10-08T14:02:34;12.33;;;10.67;;
73959;SDS011;62316;48.920;2.342;2023-10-08T14:05:03;11.67;;;10.00;;
73959;SDS011;62316;48.920;2.342;2023-10-08T14:07:39;13.75;;;13.75;;
73959;SDS011;62316;48.920;2.342;2023-10-08T14:10:14;8.00;;;8.00;;
73959;SDS011;62316;48.920;2.342;2023-10-08T14:13:03;11.67;;;10.67;;
73959;SDS011;62316;48.920;2.342;2023-10-08T14:15:31;11.33;;;10.00;;
73959;SDS011;62316;48.920;2.342;2023-10-08T14:24:37;10.00;;;9.00;;
73959;SDS011;62316;48.920;2.342;2023-10-08T14:30:16;7.67;;;7.67;;
73959;SDS011;62316;48.920;2.342;2023-10-08T14:32:48;13.67;;;9.67;;
73959;SDS011;62316;48.920;2.342;2023-10-08T14:35:34;10.67;;;8.00;;
73959;SDS011;62316;48.920;2.342;2023-10-08T14:38:31;7.00;;;7.00;;
73959;SDS011;62316;48.920;2.342;2023-10-08T14:41:15;13.33;;;11.67;;
73959;SDS011;62316;48.920;2.342;2023-10-08T14:44:11;10.67;;;10.33;;
73959;SDS011;62316;48.920;2.342;2023-10-08T14:46:53;9.33;;;7.00;;
73959;SDS011;62316;48.920;2.342;2023-10-08T14:49:20;9.67;;;9.00;;
73959;SDS011;62316;48.920;2.342;2023-10-08T14:51:47;78.75;;;63.25;;
73959;SDS011;62316;48.920;2.342;2023-10-08T14:54:14;11.33;;;8.67;;
73959;SDS011;62316;48.920;2.342;2023-10-08T14:56:39;10.33;;;7.67;;
73959;SDS011;62316;48.920;2.342;2023-10-08T14:59:04;9.00;;;8.00;;
73959;SDS011;62316;48.920;2.342;2023-10-08T15:01:30;8.67;;;7.67;;
73959;SDS011;62316;48.920;2.342;2023-10-08T15:03:58;7.00;;;6.67;;
73959;SDS011;62316;48.920;2.342;2023-10-08T15:06:24;5.00;;;3.00;;
73959;SDS011;62316;48.920;2.342;2023-10-08T15:08:49;9.00;;;7.67;;
73959;SDS011;62316;48.920;2.342;2023-10-08T15:11:14;9.00;;;9.00;;
73959;SDS011;62316;48.920;2.342;2023-10-08T15:13:41;10.00;;;9.00;;
73959;SDS011;62316;48.920;2.342;2023-10-08T15:16:10;9.67;;;8.00;;
73959;SDS011;62316;48.920;2.342;2023-10-08T15:18:37;9.00;;;7.33;;
73959;SDS011;62316;48.920;2.342;2023-10-08T15:21:07;9.33;;;6.33;;
73959;SDS011;62316;48.920;2.342;2023-10-08T15:23:44;7.33;;;6.00;;
73959;SDS011;62316;48.920;2.342;2023-10-08T15:26:16;7.67;;;6.00;;